createdAt,value
2019-02-20T00:00:11.381Z,68.93
2019-02-20T00:01:11.368Z,69.60
2019-02-20T00:02:11.314Z,69.51
2019-02-20T00:03:11.269Z,70.00
2019-02-20T00:04:11.216Z,70.15
2019-02-20T00:05:11.164Z,70.48
2019-02-20T00:06:11.138Z,70.67
2019-02-20T00:07:11.074Z,70.83
2019-02-20T00:08:11.073Z,70.83
2019-02-20T00:09:11.020Z,70.93
2019-02-20T00:10:10.962Z,71.32
2019-02-20T00:11:10.899Z,70.67
2019-02-20T00:12:10.866Z,70.48
2019-02-20T00:13:10.822Z,71.45
2019-02-20T00:14:10.778Z,71.55
2019-02-20T00:15:10.743Z,72.13
2019-02-20T00:16:10.690Z,71.55
2019-02-20T00:17:10.646Z,71.64
2019-02-20T00:18:10.594Z,71.26
2019-02-20T00:19:10.568Z,70.29
2019-02-20T00:20:10.523Z,70.97
2019-02-20T00:21:10.481Z,70.48
2019-02-20T00:22:10.416Z,70.48
2019-02-20T00:23:10.371Z,71.36
2019-02-20T00:24:10.327Z,71.36
2019-02-20T00:25:10.284Z,71.36
2019-02-20T00:26:10.252Z,71.16
2019-02-20T00:27:10.217Z,70.97
2019-02-20T00:28:10.172Z,70.87
2019-02-20T00:29:10.139Z,70.87
2019-02-20T00:30:10.085Z,70.67
2019-02-20T00:31:10.033Z,70.87
2019-02-20T00:32:09.988Z,70.77
2019-02-20T00:33:09.944Z,70.77
2019-02-20T00:34:09.910Z,71.06
2019-02-20T00:35:09.877Z,70.57
2019-02-20T00:36:09.801Z,70.39
2019-02-20T00:37:09.768Z,70.67
2019-02-20T00:38:09.727Z,70.87
2019-02-20T00:39:09.692Z,71.06
2019-02-20T00:40:09.657Z,70.57
2019-02-20T00:41:09.580Z,70.29
2019-02-20T00:42:09.549Z,69.41
2019-02-20T00:43:09.535Z,70.00
2019-02-20T00:44:09.461Z,70.57
2019-02-20T00:45:09.417Z,70.19
2019-02-20T00:46:09.394Z,69.70
2019-02-20T00:47:09.318Z,69.32
2019-02-20T00:48:09.277Z,69.51
2019-02-20T00:49:09.262Z,70.29
2019-02-20T00:50:09.200Z,70.09
2019-02-20T00:51:09.162Z,70.09
2019-02-20T00:52:09.121Z,70.29
2019-02-20T00:53:09.054Z,69.70
2019-02-20T00:54:09.466Z,70.77
2019-02-20T00:55:08.998Z,70.29
2019-02-20T00:56:08.944Z,70.19
2019-02-20T00:57:08.878Z,70.29
2019-02-20T00:58:08.855Z,70.48
2019-02-20T00:59:08.791Z,70.57
2019-02-20T01:00:08.761Z,70.48
2019-02-20T01:01:08.737Z,70.57
2019-02-20T01:02:08.681Z,70.57
2019-02-20T01:03:08.647Z,70.09
2019-02-20T01:04:08.603Z,70.67
2019-02-20T01:05:08.548Z,70.77
2019-02-20T01:06:08.507Z,70.48
2019-02-20T01:07:08.441Z,70.67
2019-02-20T01:08:08.417Z,71.26
2019-02-20T01:09:08.353Z,71.36
2019-02-20T01:10:08.308Z,71.74
2019-02-20T01:11:08.263Z,71.94
2019-02-20T01:12:08.252Z,71.94
2019-02-20T01:13:08.198Z,71.84
2019-02-20T01:14:08.168Z,72.13
2019-02-20T01:15:08.110Z,72.03
2019-02-20T01:16:08.056Z,72.71
2019-02-20T01:17:08.034Z,72.67
2019-02-20T01:18:07.956Z,73.46
2019-02-20T01:19:07.913Z,73.36
2019-02-20T01:20:07.901Z,74.43
2019-02-20T01:21:07.845Z,74.13
2019-02-20T01:22:07.812Z,74.62
2019-02-20T01:23:07.756Z,74.52
2019-02-20T01:24:07.725Z,74.62
2019-02-20T01:25:07.871Z,75.49
2019-02-20T01:26:07.615Z,75.74
2019-02-20T01:27:07.592Z,75.74
2019-02-20T01:28:07.527Z,76.14
2019-02-20T01:29:07.483Z,77.01
2019-02-20T01:30:07.459Z,77.49
2019-02-20T01:31:07.395Z,77.78
2019-02-20T01:32:07.371Z,78.33
2019-02-20T01:33:07.297Z,78.42
2019-02-20T01:34:07.251Z,78.71
2019-02-20T01:35:07.229Z,79.00
2019-02-20T01:36:07.182Z,78.71
2019-02-20T01:37:07.138Z,78.71
2019-02-20T01:38:07.087Z,78.71
2019-02-20T01:39:07.061Z,79.49
2019-02-20T01:40:06.998Z,79.39
2019-02-20T01:41:06.961Z,79.39
2019-02-20T01:42:06.896Z,79.30
2019-02-20T01:43:06.864Z,79.78
2019-02-20T01:44:06.810Z,79.53
2019-02-20T01:45:06.782Z,79.78
2019-02-20T01:46:06.739Z,79.88
2019-02-20T01:47:06.675Z,79.97
2019-02-20T01:48:06.631Z,79.68
2019-02-20T01:49:06.598Z,79.97
2019-02-20T01:50:06.563Z,79.78
2019-02-20T01:51:06.530Z,80.17
2019-02-20T01:52:06.477Z,80.17
2019-02-20T01:53:10.363Z,80.55
2019-02-20T01:54:06.397Z,80.94
2019-02-20T01:55:06.352Z,80.17
2019-02-20T01:56:06.276Z,80.36
2019-02-20T01:57:06.257Z,80.65
2019-02-20T01:58:06.208Z,80.55
2019-02-20T01:59:06.157Z,80.75
2019-02-20T02:00:06.130Z,80.85
2019-02-20T02:01:06.087Z,80.75
2019-02-20T02:02:06.033Z,80.75
2019-02-20T02:03:05.979Z,80.85
2019-02-20T02:04:05.933Z,81.04
2019-02-20T02:05:14.529Z,80.85
2019-02-20T02:06:05.853Z,80.85
2019-02-20T02:07:05.809Z,81.33
2019-02-20T02:08:05.744Z,81.33
2019-02-20T02:09:05.717Z,81.43
2019-02-20T02:10:05.863Z,81.23
2019-02-20T02:11:05.612Z,81.43
2019-02-20T02:12:05.588Z,81.43
2019-02-20T02:13:05.536Z,80.94
2019-02-20T02:14:05.490Z,81.43
2019-02-20T02:15:05.467Z,81.82
2019-02-20T02:16:05.391Z,81.43
2019-02-20T02:17:05.377Z,81.82
2019-02-20T02:18:05.321Z,82.69
2019-02-20T02:19:05.285Z,82.10
2019-02-20T02:20:05.212Z,82.10
2019-02-20T02:21:05.169Z,82.50
2019-02-20T02:22:05.154Z,82.65
2019-02-20T02:23:05.080Z,82.69
2019-02-20T02:24:05.075Z,82.55
2019-02-20T02:25:05.015Z,82.59
2019-02-20T02:26:10.638Z,82.98
2019-02-20T02:27:04.917Z,82.98
2019-02-20T02:28:04.889Z,83.56
2019-02-20T02:29:04.838Z,82.94
2019-02-20T02:30:04.801Z,82.94
2019-02-20T02:31:04.745Z,83.13
2019-02-20T02:32:04.759Z,83.42
2019-02-20T02:33:04.667Z,83.52
2019-02-20T02:34:04.605Z,83.72
2019-02-20T02:35:04.581Z,84.30
2019-02-20T02:36:04.514Z,84.10
2019-02-20T02:37:04.475Z,83.81
2019-02-20T02:38:04.419Z,84.78
2019-02-20T02:39:04.390Z,85.17
2019-02-20T02:40:04.347Z,84.97
2019-02-20T02:41:04.343Z,84.78
2019-02-20T02:42:04.256Z,85.36
2019-02-20T02:43:04.190Z,84.78
2019-02-20T02:44:04.167Z,85.17
2019-02-20T02:45:04.112Z,84.88
2019-02-20T02:46:04.140Z,85.07
2019-02-20T02:47:04.045Z,85.36
2019-02-20T02:48:03.985Z,85.17
2019-02-20T02:49:03.950Z,85.27
2019-02-20T02:50:03.903Z,85.27
2019-02-20T02:51:03.854Z,85.27
2019-02-20T02:52:03.807Z,85.46
2019-02-20T02:53:03.765Z,85.65
2019-02-20T02:54:03.724Z,85.94
2019-02-20T02:55:03.690Z,85.85
2019-02-20T02:56:03.627Z,86.19
2019-02-20T02:57:03.570Z,86.33
2019-02-20T02:58:03.554Z,86.58
2019-02-20T02:59:03.479Z,86.38
2019-02-20T03:00:03.451Z,86.52
2019-02-20T03:01:03.411Z,86.58
2019-02-20T03:02:03.414Z,86.87
2019-02-20T03:03:03.319Z,86.77
2019-02-20T03:04:03.276Z,87.26
2019-02-20T03:05:03.232Z,86.82
2019-02-20T03:06:03.258Z,86.68
2019-02-20T03:07:03.143Z,86.58
2019-02-20T03:08:03.098Z,86.48
2019-02-20T03:09:03.066Z,86.52
2019-02-20T03:10:03.001Z,86.38
2019-02-20T03:11:03.009Z,86.52
2019-02-20T03:12:02.901Z,86.62
2019-02-20T03:13:02.885Z,86.43
2019-02-20T03:14:02.809Z,86.43
2019-02-20T03:15:02.796Z,86.43
2019-02-20T03:16:02.719Z,86.82
2019-02-20T03:17:02.674Z,86.77
2019-02-20T03:18:02.639Z,86.82
2019-02-20T03:19:02.589Z,87.06
2019-02-20T03:20:02.561Z,87.16
2019-02-20T03:21:02.520Z,86.87
2019-02-20T03:22:02.465Z,86.77
2019-02-20T03:23:02.410Z,86.77
2019-02-20T03:24:02.395Z,87.64
2019-02-20T03:25:02.331Z,87.54
2019-02-20T03:26:02.277Z,87.35
2019-02-20T03:27:02.234Z,87.54
2019-02-20T03:28:02.217Z,87.35
2019-02-20T03:29:02.139Z,87.26
2019-02-20T03:30:02.124Z,87.26
2019-02-20T03:31:02.071Z,87.93
2019-02-20T03:32:02.006Z,87.84
2019-02-20T03:33:01.984Z,88.51
2019-02-20T03:34:01.953Z,88.42
2019-02-20T03:35:01.897Z,88.32
2019-02-20T03:36:01.838Z,88.61
2019-02-20T03:37:01.782Z,88.13
2019-02-20T03:38:01.769Z,88.23
2019-02-20T03:39:01.724Z,88.61
2019-02-20T03:40:01.680Z,88.42
2019-02-20T03:41:05.777Z,87.74
2019-02-20T03:42:01.608Z,88.13
2019-02-20T03:43:01.547Z,87.93
2019-02-20T03:44:01.490Z,87.93
2019-02-20T03:45:01.458Z,87.26
2019-02-20T03:46:01.400Z,87.93
2019-02-20T03:47:01.535Z,87.16
2019-02-20T03:48:01.311Z,87.45
2019-02-20T03:49:01.266Z,87.16
2019-02-20T03:50:01.212Z,87.74
2019-02-20T03:51:01.178Z,88.13
2019-02-20T03:52:01.133Z,87.64
2019-02-20T03:53:01.067Z,88.32
2019-02-20T03:54:01.054Z,88.13
2019-02-20T03:55:01.010Z,88.51
2019-02-20T03:56:00.966Z,88.51
2019-02-20T03:57:00.897Z,89.00
2019-02-20T03:58:00.864Z,89.29
2019-02-20T03:59:00.836Z,89.39
2019-02-20T04:00:00.766Z,89.68
2019-02-20T04:01:00.671Z,89.19
2019-02-20T04:02:00.685Z,89.29
2019-02-20T04:03:00.640Z,88.90
2019-02-20T04:04:00.596Z,89.19
2019-02-20T04:05:00.554Z,88.81
2019-02-20T04:06:00.486Z,88.81
2019-02-20T04:07:00.468Z,88.32
2019-02-20T04:08:00.417Z,88.81
2019-02-20T04:09:00.398Z,88.90
2019-02-20T04:10:00.324Z,89.19
2019-02-20T04:11:00.274Z,89.48
2019-02-20T04:12:00.229Z,89.77
2019-02-20T04:13:00.185Z,89.48
2019-02-20T04:14:00.148Z,89.48
2019-02-20T04:15:00.373Z,89.77
2019-02-20T04:16:00.070Z,89.39
2019-02-20T04:17:00.015Z,89.87
2019-02-20T04:17:59.973Z,90.16
2019-02-20T04:18:59.917Z,90.16
2019-02-20T04:19:59.867Z,90.06
2019-02-20T04:20:59.778Z,90.21
2019-02-20T04:21:59.790Z,90.26
2019-02-20T04:22:59.725Z,90.99
2019-02-20T04:24:02.809Z,90.70
2019-02-20T04:24:59.647Z,90.74
2019-02-20T04:25:59.611Z,90.02
2019-02-20T04:26:59.578Z,90.21
2019-02-20T04:27:59.513Z,90.06
2019-02-20T04:28:59.469Z,89.83
2019-02-20T04:29:59.432Z,89.29
2019-02-20T04:30:59.387Z,89.19
2019-02-20T04:31:59.343Z,89.15
2019-02-20T04:32:59.291Z,89.48
2019-02-20T04:33:59.253Z,89.58
2019-02-20T04:34:59.199Z,89.68
2019-02-20T04:35:59.164Z,89.53
2019-02-20T04:36:59.133Z,89.25
2019-02-20T04:37:59.065Z,89.39
2019-02-20T04:38:59.020Z,89.58
2019-02-20T04:39:58.964Z,89.68
2019-02-20T04:40:58.933Z,89.87
2019-02-20T04:41:58.906Z,90.16
2019-02-20T04:42:58.835Z,90.06
2019-02-20T04:43:58.822Z,90.31
2019-02-20T04:44:58.760Z,90.50
2019-02-20T04:45:58.706Z,90.60
2019-02-20T04:46:58.650Z,91.18
2019-02-20T04:47:58.649Z,91.18
2019-02-20T04:48:58.572Z,90.89
2019-02-20T04:49:58.559Z,90.02
2019-02-20T04:50:58.575Z,89.92
2019-02-20T04:51:58.427Z,89.73
2019-02-20T04:52:58.405Z,89.44
2019-02-20T04:53:58.338Z,89.05
2019-02-20T04:54:58.292Z,88.67
2019-02-20T04:55:58.286Z,88.61
2019-02-20T04:56:58.223Z,88.67
2019-02-20T04:57:58.161Z,89.05
2019-02-20T04:58:58.112Z,88.91
2019-02-20T04:59:58.110Z,89.73
2019-02-20T05:00:58.026Z,90.07
2019-02-20T05:01:57.994Z,89.97
2019-02-20T05:02:57.949Z,89.69
2019-02-20T05:03:57.889Z,89.97
2019-02-20T05:04:57.890Z,89.88
2019-02-20T05:05:57.813Z,89.78
2019-02-20T05:06:57.786Z,89.44
2019-02-20T05:07:57.708Z,89.53
2019-02-20T05:08:57.696Z,89.05
2019-02-20T05:09:57.639Z,89.25
2019-02-20T05:10:57.595Z,89.25
2019-02-20T05:11:57.561Z,88.95
2019-02-20T05:12:57.502Z,89.25
2019-02-20T05:13:57.473Z,88.57
2019-02-20T05:14:57.415Z,89.15
2019-02-20T05:15:57.372Z,88.95
2019-02-20T05:16:57.325Z,89.34
2019-02-20T05:17:57.284Z,89.34
2019-02-20T05:18:57.247Z,89.34
2019-02-20T05:19:57.190Z,89.44
2019-02-20T05:20:57.158Z,89.63
2019-02-20T05:21:57.106Z,89.63
2019-02-20T05:22:57.035Z,88.67
2019-02-20T05:23:57.012Z,89.15
2019-02-20T05:24:56.977Z,88.85
2019-02-20T05:25:56.939Z,88.95
2019-02-20T05:26:56.887Z,89.25
2019-02-20T05:27:56.831Z,89.73
2019-02-20T05:28:56.798Z,89.25
2019-02-20T05:29:56.742Z,88.85
2019-02-20T05:30:56.690Z,89.15
2019-02-20T05:31:56.664Z,89.34
2019-02-20T05:32:56.597Z,89.34
2019-02-20T05:33:56.554Z,88.95
2019-02-20T05:34:56.510Z,89.15
2019-02-20T05:35:56.464Z,89.39
2019-02-20T05:36:56.448Z,89.78
2019-02-20T05:37:56.390Z,89.59
2019-02-20T05:38:56.374Z,89.97
2019-02-20T05:39:56.294Z,90.75
2019-02-20T05:40:56.262Z,90.65
2019-02-20T05:41:56.184Z,90.75
2019-02-20T05:42:56.165Z,90.75
2019-02-20T05:43:56.092Z,91.04
2019-02-20T05:44:56.068Z,90.36
2019-02-20T05:45:56.022Z,90.12
2019-02-20T05:46:55.978Z,90.26
2019-02-20T05:47:55.944Z,90.07
2019-02-20T05:48:55.888Z,90.21
2019-02-20T05:49:55.854Z,90.84
2019-02-20T05:50:55.809Z,90.50
2019-02-20T05:51:55.745Z,90.75
2019-02-20T05:52:55.698Z,89.88
2019-02-20T05:53:55.654Z,90.46
2019-02-20T05:54:55.610Z,90.17
2019-02-20T05:55:55.522Z,89.88
2019-02-20T05:56:55.519Z,89.88
2019-02-20T05:57:55.463Z,89.78
2019-02-20T05:58:55.417Z,89.88
2019-02-20T05:59:55.371Z,89.78
2019-02-20T06:00:55.349Z,90.21
2019-02-20T06:01:55.290Z,90.26
2019-02-20T06:02:55.237Z,90.12
2019-02-20T06:03:55.224Z,89.78
2019-02-20T06:04:55.152Z,90.26
2019-02-20T06:05:55.115Z,90.07
2019-02-20T06:06:55.069Z,89.88
2019-02-20T06:07:55.037Z,89.97
2019-02-20T06:08:55.001Z,89.88
2019-02-20T06:09:54.923Z,90.84
2019-02-20T06:10:54.905Z,90.36
2019-02-20T06:11:54.853Z,90.84
2019-02-20T06:12:54.808Z,90.46
2019-02-20T06:13:54.742Z,91.24
2019-02-20T06:14:54.729Z,90.99
2019-02-20T06:15:54.672Z,91.77
2019-02-20T06:16:54.610Z,92.16
2019-02-20T06:17:54.582Z,92.16
2019-02-20T06:18:54.549Z,91.48
2019-02-20T06:19:54.483Z,92.06
2019-02-20T06:20:54.428Z,92.64
2019-02-20T06:21:54.414Z,92.21
2019-02-20T06:22:54.350Z,92.88
2019-02-20T06:23:54.323Z,92.83
2019-02-20T06:24:54.279Z,92.21
2019-02-20T06:25:54.233Z,92.79
2019-02-20T06:26:54.173Z,92.59
2019-02-20T06:27:54.143Z,92.79
2019-02-20T06:28:54.087Z,92.59
2019-02-20T06:29:54.021Z,92.79
2019-02-20T06:30:53.988Z,92.25
2019-02-20T06:31:53.929Z,92.64
2019-02-20T06:32:53.904Z,92.11
2019-02-20T06:33:53.853Z,92.01
2019-02-20T06:34:53.827Z,91.63
2019-02-20T06:35:53.771Z,91.53
2019-02-20T06:36:53.703Z,91.91
2019-02-20T06:37:53.658Z,92.30
2019-02-20T06:38:53.615Z,91.53
2019-02-20T06:39:53.578Z,91.67
2019-02-20T06:40:53.542Z,91.72
2019-02-20T06:41:53.486Z,91.82
2019-02-20T06:42:53.431Z,92.21
2019-02-20T06:43:53.406Z,92.21
2019-02-20T06:44:53.372Z,91.91
2019-02-20T06:45:53.327Z,91.43
2019-02-20T06:46:53.250Z,91.72
2019-02-20T06:47:53.215Z,91.33
2019-02-20T06:48:53.179Z,92.01
2019-02-20T06:49:53.146Z,92.40
2019-02-20T06:50:53.068Z,92.21
2019-02-20T06:51:53.054Z,92.21
2019-02-20T06:52:52.998Z,92.21
2019-02-20T06:53:52.964Z,92.11
2019-02-20T06:54:54.225Z,92.49
2019-02-20T06:55:52.853Z,92.11
2019-02-20T06:56:52.819Z,92.21
2019-02-20T06:57:52.779Z,92.21
2019-02-20T06:58:52.705Z,92.21
2019-02-20T06:59:52.691Z,92.49
2019-02-20T07:00:52.615Z,92.79
2019-02-20T07:01:52.569Z,92.79
2019-02-20T07:02:52.535Z,92.30
2019-02-20T07:03:52.489Z,92.21
2019-02-20T07:04:52.432Z,92.55
2019-02-20T07:05:52.419Z,92.30
2019-02-20T07:06:52.376Z,92.59
2019-02-20T07:07:52.317Z,92.59
2019-02-20T07:08:52.263Z,93.46
2019-02-20T07:09:52.205Z,93.27
2019-02-20T07:10:52.159Z,93.32
2019-02-20T07:11:52.146Z,93.13
2019-02-20T07:12:52.068Z,93.61
2019-02-20T07:13:52.055Z,93.51
2019-02-20T07:14:51.989Z,94.38
2019-02-20T07:15:51.932Z,93.71
2019-02-20T07:16:51.899Z,94.29
2019-02-20T07:17:51.872Z,94.96
2019-02-20T07:18:51.817Z,94.77
2019-02-20T07:19:51.782Z,95.06
2019-02-20T07:20:51.737Z,94.77
2019-02-20T07:21:51.691Z,95.25
2019-02-20T07:22:51.625Z,96.03
2019-02-20T07:23:51.567Z,95.83
2019-02-20T07:24:51.542Z,96.41
2019-02-20T07:25:51.497Z,96.61
2019-02-20T07:26:51.451Z,96.61
2019-02-20T07:27:51.396Z,96.41
2019-02-20T07:28:51.361Z,96.75
2019-02-20T07:29:51.306Z,97.19
2019-02-20T07:30:51.248Z,97.38
2019-02-20T07:31:51.234Z,96.94
2019-02-20T07:32:51.177Z,97.24
2019-02-20T07:33:51.132Z,97.33
2019-02-20T07:34:51.065Z,97.72
2019-02-20T07:35:51.021Z,98.00
2019-02-20T07:36:50.975Z,98.58
2019-02-20T07:37:50.940Z,98.39
2019-02-20T07:38:50.898Z,98.58
2019-02-20T07:39:50.870Z,98.10
2019-02-20T07:40:50.813Z,98.58
2019-02-20T07:41:50.748Z,98.30
2019-02-20T07:42:50.711Z,98.10
2019-02-20T07:43:50.686Z,98.20
2019-02-20T07:44:50.611Z,98.20
2019-02-20T07:45:50.584Z,97.72
2019-02-20T07:46:50.519Z,97.72
2019-02-20T07:47:50.482Z,97.91
2019-02-20T07:48:50.448Z,98.39
2019-02-20T07:49:50.380Z,98.20
2019-02-20T07:50:50.345Z,97.91
2019-02-20T07:51:50.300Z,97.91
2019-02-20T07:52:50.254Z,97.33
2019-02-20T07:53:50.201Z,97.52
2019-02-20T07:54:50.162Z,97.91
2019-02-20T07:55:50.116Z,97.72
2019-02-20T07:56:50.061Z,97.72
2019-02-20T07:57:50.013Z,97.91
2019-02-20T07:58:50.000Z,97.81
2019-02-20T07:59:49.954Z,97.42
2019-02-20T08:00:49.891Z,97.33
2019-02-20T08:01:49.842Z,97.72
2019-02-20T08:02:49.795Z,98.00
2019-02-20T08:03:49.751Z,97.91
2019-02-20T08:04:49.725Z,98.10
2019-02-20T08:05:49.687Z,98.15
2019-02-20T08:06:49.616Z,97.91
2019-02-20T08:07:49.589Z,97.62
2019-02-20T08:08:49.509Z,98.20
2019-02-20T08:09:49.484Z,98.20
2019-02-20T08:10:49.438Z,98.05
2019-02-20T08:11:49.392Z,97.57
2019-02-20T08:12:49.338Z,97.72
2019-02-20T08:13:49.292Z,97.72
2019-02-20T08:14:49.444Z,97.42
2019-02-20T08:15:49.200Z,97.42
2019-02-20T08:16:52.330Z,97.52
2019-02-20T08:17:49.110Z,97.24
2019-02-20T08:18:49.083Z,97.24
2019-02-20T08:19:49.007Z,96.84
2019-02-20T08:20:49.180Z,96.56
2019-02-20T08:21:48.926Z,96.84
2019-02-20T08:22:48.872Z,96.36
2019-02-20T08:23:48.822Z,96.56
2019-02-20T08:24:48.809Z,96.56
2019-02-20T08:25:48.730Z,96.56
2019-02-20T08:26:48.905Z,96.36
2019-02-20T08:27:48.671Z,96.75
2019-02-20T08:28:48.630Z,96.75
2019-02-20T08:29:48.559Z,96.75
2019-02-20T08:30:48.535Z,96.56
2019-02-20T08:31:48.488Z,96.75
2019-02-20T08:32:48.631Z,96.80
2019-02-20T08:33:48.397Z,96.99
2019-02-20T08:34:48.342Z,97.04
2019-02-20T08:35:48.306Z,97.33
2019-02-20T08:36:48.247Z,97.19
2019-02-20T08:37:48.203Z,97.28
2019-02-20T08:38:48.340Z,97.04
2019-02-20T08:39:48.103Z,97.33
2019-02-20T08:40:48.056Z,97.28
2019-02-20T08:41:47.999Z,96.80
2019-02-20T08:42:47.952Z,97.24
2019-02-20T08:43:47.911Z,96.89
2019-02-20T08:44:48.072Z,96.80
2019-02-20T08:45:47.815Z,97.24
2019-02-20T08:46:47.784Z,97.14
2019-02-20T08:47:47.754Z,97.19
2019-02-20T08:48:47.709Z,97.19
2019-02-20T08:49:47.663Z,96.80
2019-02-20T08:50:47.798Z,96.70
2019-02-20T08:51:47.571Z,96.61
2019-02-20T08:52:47.526Z,96.80
2019-02-20T08:53:47.460Z,96.22
2019-02-20T08:54:47.432Z,96.08
2019-02-20T08:55:47.357Z,95.93
2019-02-20T08:56:47.534Z,95.35
2019-02-20T08:57:47.286Z,95.25
2019-02-20T08:58:47.219Z,95.64
2019-02-20T08:59:47.194Z,95.45
2019-02-20T09:00:47.142Z,95.45
2019-02-20T09:01:47.114Z,95.59
2019-02-20T09:02:47.269Z,95.01
2019-02-20T09:03:47.023Z,95.25
2019-02-20T09:04:46.965Z,95.50
2019-02-20T09:05:46.898Z,95.93
2019-02-20T09:06:46.852Z,95.59
2019-02-20T09:07:46.806Z,95.74
2019-02-20T09:08:46.982Z,95.45
2019-02-20T09:09:46.715Z,95.50
2019-02-20T09:10:46.700Z,95.01
2019-02-20T09:11:46.655Z,94.62
2019-02-20T09:12:46.578Z,94.72
2019-02-20T09:13:46.544Z,94.92
2019-02-20T09:14:46.688Z,94.92
2019-02-20T09:15:46.452Z,95.01
2019-02-20T09:16:46.429Z,94.34
2019-02-20T09:17:46.361Z,94.53
2019-02-20T09:18:46.326Z,94.14
2019-02-20T09:19:46.294Z,94.53
2019-02-20T09:20:46.455Z,94.14
2019-02-20T09:21:46.191Z,94.14
2019-02-20T09:22:46.135Z,94.14
2019-02-20T09:23:46.107Z,93.76
2019-02-20T09:24:46.068Z,94.04
2019-02-20T09:25:45.996Z,93.95
2019-02-20T09:26:46.139Z,93.85
2019-02-20T09:27:45.915Z,93.41
2019-02-20T09:28:45.848Z,93.32
2019-02-20T09:29:45.802Z,92.16
2019-02-20T09:30:45.767Z,92.07
2019-02-20T09:31:45.722Z,90.71
2019-02-20T09:32:45.885Z,90.56
2019-02-20T09:33:45.640Z,90.85
2019-02-20T09:34:45.588Z,89.79
2019-02-20T09:35:45.562Z,89.11
2019-02-20T09:36:45.516Z,88.63
2019-02-20T09:37:45.459Z,88.43
2019-02-20T09:38:45.605Z,88.43
2019-02-20T09:39:45.350Z,88.43
2019-02-20T09:40:45.315Z,87.95
2019-02-20T09:41:45.263Z,88.43
2019-02-20T09:42:45.246Z,87.76
2019-02-20T09:43:45.189Z,88.05
2019-02-20T09:44:45.345Z,88.53
2019-02-20T09:45:45.110Z,88.82
2019-02-20T09:46:45.054Z,88.73
2019-02-20T09:47:45.012Z,88.82
2019-02-20T09:48:44.966Z,87.71
2019-02-20T09:49:44.930Z,86.40
2019-02-20T09:50:45.075Z,84.11
2019-02-20T09:51:44.841Z,82.51
2019-02-20T09:52:51.939Z,80.71
2019-02-20T09:53:44.733Z,79.00
2019-02-20T09:54:44.698Z,77.39
2019-02-20T09:55:51.269Z,75.94
2019-02-20T09:56:44.814Z,75.49
2019-02-20T09:57:44.564Z,74.71
2019-02-20T09:58:44.511Z,74.04
2019-02-20T09:59:44.499Z,73.20
2019-02-20T10:00:44.452Z,73.10
2019-02-20T10:01:44.386Z,72.07
2019-02-20T10:02:44.579Z,71.68
2019-02-20T10:03:44.345Z,70.55
2019-02-20T10:04:44.312Z,70.26
2019-02-20T10:05:44.240Z,70.45
2019-02-20T10:06:44.758Z,70.26
2019-02-20T10:07:44.181Z,70.36
2019-02-20T10:08:44.332Z,70.45
2019-02-20T10:09:44.072Z,69.67
2019-02-20T10:10:44.067Z,70.26
2019-02-20T10:11:44.022Z,69.87
2019-02-20T10:12:43.974Z,70.06
2019-02-20T10:13:43.953Z,70.26
2019-02-20T10:14:44.095Z,70.61
2019-02-20T10:15:43.849Z,71.36
2019-02-20T10:16:43.827Z,71.90
2019-02-20T10:17:43.803Z,73.26
2019-02-20T10:18:43.750Z,74.77
2019-02-20T10:19:43.704Z,75.07
2019-02-20T10:20:43.855Z,75.32
2019-02-20T10:21:43.645Z,76.19
2019-02-20T10:22:43.583Z,77.45
2019-02-20T10:23:45.278Z,77.51
2019-02-20T10:24:43.491Z,77.84
2019-02-20T10:25:43.489Z,75.74
2019-02-20T10:26:43.643Z,74.33
2019-02-20T10:27:43.408Z,74.23
2019-02-20T10:28:43.353Z,75.07
2019-02-20T10:29:43.291Z,75.36
2019-02-20T10:30:43.282Z,75.71
2019-02-20T10:31:43.211Z,76.39
2019-02-20T10:32:43.383Z,76.29
2019-02-20T10:33:43.158Z,76.74
2019-02-20T10:34:43.096Z,77.80
2019-02-20T10:35:43.066Z,78.09
2019-02-20T10:36:43.022Z,78.19
2019-02-20T10:37:42.962Z,78.87
2019-02-20T10:38:43.119Z,79.06
2019-02-20T10:39:42.945Z,79.06
2019-02-20T10:40:42.832Z,79.25
2019-02-20T10:41:42.792Z,79.06
2019-02-20T10:42:42.769Z,78.61
2019-02-20T10:43:42.743Z,77.84
2019-02-20T10:44:42.876Z,76.68
2019-02-20T10:45:42.636Z,75.65
2019-02-20T10:46:42.610Z,75.40
2019-02-20T10:47:42.537Z,74.65
2019-02-20T10:48:42.524Z,73.78
2019-02-20T10:49:42.455Z,73.20
2019-02-20T10:50:42.626Z,72.55
2019-02-20T10:51:42.395Z,72.27
2019-02-20T10:52:42.351Z,72.27
2019-02-20T10:53:42.307Z,71.78
2019-02-20T10:54:42.267Z,71.88
2019-02-20T10:55:42.255Z,72.17
2019-02-20T10:56:42.399Z,71.58
2019-02-20T10:57:42.156Z,72.52
2019-02-20T10:58:42.102Z,72.81
2019-02-20T10:59:42.098Z,72.71
2019-02-20T11:00:42.022Z,72.71
2019-02-20T11:01:41.985Z,72.23
2019-02-20T11:02:42.177Z,73.30
2019-02-20T11:03:41.942Z,72.71
2019-02-20T11:04:41.878Z,72.23
2019-02-20T11:05:41.848Z,72.13
2019-02-20T11:06:41.817Z,72.71
2019-02-20T11:07:41.748Z,72.61
2019-02-20T11:08:41.944Z,72.55
2019-02-20T11:09:41.707Z,72.17
2019-02-20T11:10:41.661Z,71.97
2019-02-20T11:11:41.630Z,72.27
2019-02-20T11:12:41.567Z,72.85
2019-02-20T11:13:41.528Z,71.26
2019-02-20T11:14:41.686Z,71.45
2019-02-20T11:15:41.436Z,72.03
2019-02-20T11:16:41.405Z,71.74
2019-02-20T11:17:41.344Z,71.55
2019-02-20T11:18:41.312Z,71.55
2019-02-20T11:19:41.272Z,71.00
2019-02-20T11:20:48.267Z,71.00
2019-02-20T11:21:41.252Z,70.81
2019-02-20T11:22:41.158Z,71.29
2019-02-20T11:23:41.127Z,71.78
2019-02-20T11:24:41.074Z,72.36
2019-02-20T11:25:41.032Z,71.68
2019-02-20T11:26:51.937Z,70.55
2019-02-20T11:27:40.936Z,70.84
2019-02-20T11:28:40.894Z,70.75
2019-02-20T11:29:40.852Z,69.38
2019-02-20T11:30:40.812Z,69.58
2019-02-20T11:31:40.768Z,70.16
2019-02-20T11:32:40.919Z,70.45
2019-02-20T11:33:40.691Z,69.38
2019-02-20T11:34:40.641Z,69.09
2019-02-20T11:35:40.596Z,69.77
2019-02-20T11:36:40.606Z,70.20
2019-02-20T11:37:40.572Z,69.13
2019-02-20T11:38:40.693Z,69.13
2019-02-20T11:39:40.458Z,69.42
2019-02-20T11:40:40.396Z,69.32
2019-02-20T11:41:40.347Z,69.03
2019-02-20T11:42:40.302Z,68.35
2019-02-20T11:43:40.280Z,68.15
2019-02-20T11:44:40.207Z,68.44
2019-02-20T11:45:40.176Z,69.51
2019-02-20T11:46:40.131Z,69.03
2019-02-20T11:47:40.080Z,68.84
2019-02-20T11:48:40.037Z,68.99
2019-02-20T11:49:40.028Z,69.29
2019-02-20T11:50:39.979Z,69.42
2019-02-20T11:51:39.939Z,68.05
2019-02-20T11:52:39.876Z,68.35
2019-02-20T11:53:39.854Z,67.86
2019-02-20T11:54:39.802Z,67.70
2019-02-20T11:55:39.759Z,67.60
2019-02-20T11:56:39.716Z,67.60
2019-02-20T11:57:39.672Z,67.11
2019-02-20T11:58:39.644Z,67.21
2019-02-20T11:59:39.579Z,66.99
2019-02-20T12:00:39.535Z,67.28
2019-02-20T12:01:39.502Z,68.15
2019-02-20T12:02:39.460Z,68.44
2019-02-20T12:03:39.409Z,68.15
2019-02-20T12:04:39.354Z,67.90
2019-02-20T12:05:39.337Z,67.50
2019-02-20T12:06:39.279Z,66.63
2019-02-20T12:07:39.228Z,65.56
2019-02-20T12:08:39.202Z,66.53
2019-02-20T12:09:39.194Z,66.93
2019-02-20T12:10:39.121Z,65.95
2019-02-20T12:11:39.068Z,65.08
2019-02-20T12:12:39.014Z,65.95
2019-02-20T12:13:38.983Z,66.60
2019-02-20T12:14:38.969Z,67.28
2019-02-20T12:15:38.900Z,68.22
2019-02-20T12:16:38.881Z,69.58
2019-02-20T12:17:38.838Z,69.29
2019-02-20T12:18:38.779Z,69.51
2019-02-20T12:19:39.426Z,69.09
2019-02-20T12:20:38.676Z,68.60
2019-02-20T12:21:38.650Z,68.02
2019-02-20T12:22:38.619Z,69.03
2019-02-20T12:23:38.548Z,66.89
2019-02-20T12:24:38.515Z,67.08
2019-02-20T12:25:38.473Z,67.02
2019-02-20T12:26:38.437Z,66.83
2019-02-20T12:27:38.394Z,64.72
2019-02-20T12:28:38.346Z,64.81
2019-02-20T12:29:38.301Z,64.52
2019-02-20T12:30:38.269Z,64.81
2019-02-20T12:31:38.223Z,65.40
2019-02-20T12:32:38.194Z,64.52
2019-02-20T12:33:38.129Z,64.52
2019-02-20T12:34:38.097Z,64.23
2019-02-20T12:35:38.065Z,64.42
2019-02-20T12:36:38.026Z,65.33
2019-02-20T12:37:37.980Z,65.53
2019-02-20T12:38:37.937Z,64.65
2019-02-20T12:39:37.875Z,63.68
2019-02-20T12:40:37.825Z,63.39
2019-02-20T12:41:37.815Z,64.17
2019-02-20T12:42:37.762Z,63.68
2019-02-20T12:43:37.725Z,64.36
2019-02-20T12:44:37.673Z,63.78
2019-02-20T12:45:37.608Z,64.29
2019-02-20T12:46:37.567Z,64.07
2019-02-20T12:47:37.557Z,63.68
2019-02-20T12:48:39.012Z,64.75
2019-02-20T12:49:37.439Z,63.97
2019-02-20T12:50:37.401Z,64.94
2019-02-20T12:51:37.368Z,64.45